Terminal Aerodrome Forecast
Issued by NWS Rapid City, SD

Home | Current Version | Previous Version | Text Only | Print | Product List | Glossary Off
Versions: 1 2 3 4 5 6 7 8 9 10 11 12 13 14 15 16 17 18 19 20 21

000
FTUS43 KUNR 292320
TAFRAP
TAF
KRAP 292320Z 3000/3024 08010KT P6SM VCSH OVC029
     FM300300 02007KT P6SM OVC009
     FM300900 01011KT 3SM -RA BR OVC007
     FM301200 36018G28KT P6SM OVC015
     FM301900 04015KT P6SM OVC025=

USA.gov is the U.S. government's official web portal to all federal, state and local government web resources and services.